Mount Pisgah, Arkansas
Current Conditions -  °F | °C
As of 6:56 PM on Sunday 23 Nov 2014 (Local Time) from KSRC Reporting Station
Overcast Overcast  
Wind Chill: 61°   Ceiling: 900
Heat Index: 61°   Visibility: 10mi
Dew Point: 60°   Wind: 9mph
Humidity: 97%   Direction: 190°S
Pressure: 29.42"   Gusts: NA
Location:  35.2662°N, 91.8491°W
Report Text: KSRC 240056Z AUTO 19008KT 10SM OVC009 16/16 A2942 RMK AO2 CIG 005V012 SLP966 T01610156 TSNO
Loading
Personal Weather Stations






























Interactive Weather Map New forecast layout! Learn more

10-Day Weather Forecast

Advertisements
Track Severe Weather on mobile